Time;durP1;ratioP1;P1;durP2;ratioP2;P2;SDS_P1;SDS_P2;PMS_P1;PMS_P2;Temp;Humidity;BMP_temperature;BMP_pressure;BME280_temperature;BME280_humidity;BME280_pressure;Samples;Min_cycle;Max_cycle;Signal;HPM_P1;HPM_P2
2023/03/24 00:02:09;;;;;;;;;;;;;;;8.40;100.00;92464.78;4972088;28;19914;-78
2023/03/24 00:04:34;;;;;;;;;;;;;;;8.38;100.00;92469.47;4974020;28;19914;-78
2023/03/24 00:07:00;;;;;;;;;;;;;;;8.36;100.00;92468.19;4971932;28;19920;-77
2023/03/24 00:09:27;;;;;;;;;;;;;;;8.33;100.00;92466.88;4972321;28;19968;-78
2023/03/24 00:11:53;;;;;;;;;;;;;;;8.31;100.00;92474.22;4974057;28;19921;-78
2023/03/24 00:14:18;;;;;;;;;;;;;;;8.28;100.00;92467.69;4973722;28;19918;-78
2023/03/24 00:16:44;;;;;;;;;;;;;;;8.28;100.00;92469.53;4973479;28;20369;-78
2023/03/24 00:19:10;;;;;;;;;;;;;;;8.25;100.00;92455.19;4972674;28;19993;-77
2023/03/24 00:21:36;;;;;;;;;;;;;;;8.23;100.00;92456.53;4972317;28;19914;-78
2023/03/24 00:24:03;;;;;;;;;;;;;;;8.19;100.00;92466.69;4972229;28;19918;-77
2023/03/24 00:26:29;;;;;;;;;;;;;;;8.12;100.00;92467.00;4972181;28;20329;-77
2023/03/24 00:28:55;;;;;;;;;;;;;;;8.09;100.00;92469.41;4971527;28;20057;-77
2023/03/24 00:31:23;;;;;;;;;;;;;;;8.05;100.00;92476.97;4972103;28;20380;-77
2023/03/24 00:33:49;;;;;;;;;;;;;;;8.03;100.00;92462.66;4973151;28;20379;-78
2023/03/24 00:36:17;;;;;;;;;;;;;;;8.00;100.00;92463.19;4973386;28;19949;-77
2023/03/24 00:38:42;;;;;;;;;;;;;;;8.00;100.00;92457.97;4971136;28;19914;-77
2023/03/24 00:41:09;;;;;;;;;;;;;;;7.95;100.00;92455.38;4968638;28;19917;-78
2023/03/24 00:43:35;;;;;;;;;;;;;;;7.92;100.00;92456.72;4958183;28;19915;-77
2023/03/24 00:46:02;;;;;;;;;;;;;;;7.88;100.00;92460.91;4968352;28;19918;-77
2023/03/24 00:48:29;;;;;;;;;;;;;;;7.87;100.00;92459.34;4968476;28;19925;-77
2023/03/24 00:50:55;;;;;;;;;;;;;;;7.87;100.00;92454.13;4971293;28;19910;-77
2023/03/24 00:53:22;;;;;;;;;;;;;;;7.86;100.00;92448.16;4972136;28;20292;-77
2023/03/24 00:55:48;;;;;;;;;;;;;;;7.86;100.00;92442.16;4972233;28;19992;-77
2023/03/24 00:58:18;;;;;;;;;;;;;;;7.84;100.00;92439.06;4971403;28;20281;-78
2023/03/24 01:00:48;;;;;;;;;;;;;;;8.05;100.00;92440.47;4956445;28;19918;-77
2023/03/24 01:03:14;;;;;;;;;;;;;;;7.95;100.00;92437.94;4975551;28;20090;-77
2023/03/24 01:05:41;;;;;;;;;;;;;;;7.91;100.00;92436.91;4976670;28;19977;-78
2023/03/24 01:08:07;;;;;;;;;;;;;;;7.87;100.00;92433.28;4975012;28;20273;-77
2023/03/24 01:10:33;;;;;;;;;;;;;;;7.82;100.00;92433.31;4974514;28;20365;-77
2023/03/24 01:12:59;;;;;;;;;;;;;;;7.75;100.00;92435.47;4976489;28;19914;-77
2023/03/24 01:15:28;;;;;;;;;;;;;;;7.72;100.00;92432.34;4976263;28;19910;-77
2023/03/24 01:17:54;;;;;;;;;;;;;;;7.74;100.00;92433.88;4959157;28;20133;-77
2023/03/24 01:20:21;;;;;;;;;;;;;;;7.73;100.00;92427.91;4975393;28;20412;-77
2023/03/24 01:22:47;;;;;;;;;;;;;;;7.72;100.00;92419.31;4974644;28;19909;-78
2023/03/24 01:25:15;;;;;;;;;;;;;;;7.75;100.00;92425.81;4974844;28;19914;-77
2023/03/24 01:27:44;;;;;;;;;;;;;;;7.77;100.00;92425.53;4975134;28;20006;-77
2023/03/24 01:30:12;;;;;;;;;;;;;;;7.79;100.00;92413.00;4975910;28;20008;-77
2023/03/24 01:32:37;;;;;;;;;;;;;;;7.81;100.00;92414.28;4974273;28;20017;-77
2023/03/24 01:35:05;;;;;;;;;;;;;;;7.84;100.00;92405.19;4975249;28;19950;-77
2023/03/24 01:37:30;;;;;;;;;;;;;;;7.85;100.00;92398.91;4974308;28;20414;-77
2023/03/24 01:39:56;;;;;;;;;;;;;;;7.86;100.00;92406.47;4973866;28;19957;-78
2023/03/24 01:42:22;;;;;;;;;;;;;;;7.92;100.00;92394.16;4975846;28;20372;-77
2023/03/24 01:44:49;;;;;;;;;;;;;;;7.94;100.00;92392.06;4974564;28;19953;-77
2023/03/24 01:47:16;;;;;;;;;;;;;;;7.98;100.00;92397.53;4975851;28;20041;-78
2023/03/24 01:49:48;;;;;;;;;;;;;;;8.01;100.00;92389.91;4973809;28;19914;-78
2023/03/24 01:52:17;;;;;;;;;;;;;;;8.03;100.00;92395.63;4963419;28;19921;-77
2023/03/24 01:54:44;;;;;;;;;;;;;;;8.06;100.00;92394.31;4974429;28;19920;-77
2023/03/24 01:57:19;;;;;;;;;;;;;;;8.09;100.00;92393.78;4974528;28;19918;-78
2023/03/24 01:59:47;;;;;;;;;;;;;;;8.09;100.00;92391.94;4973527;28;19970;-78
2023/03/24 02:02:43;;;;;;;;;;;;;;;8.11;100.00;92392.47;4975164;28;19972;-78
2023/03/24 02:05:10;;;;;;;;;;;;;;;8.13;100.00;92397.41;4974369;28;19914;-78
2023/03/24 02:07:51;;;;;;;;;;;;;;;8.16;100.00;92390.88;4955566;28;20002;-77
2023/03/24 02:10:17;;;;;;;;;;;;;;;8.17;100.00;92392.41;4957006;28;20395;-78
2023/03/24 02:12:43;;;;;;;;;;;;;;;8.20;100.00;92391.88;4954895;28;19922;-78
2023/03/24 02:15:10;;;;;;;;;;;;;;;8.22;100.00;92384.53;4973821;28;19916;-77
2023/03/24 02:17:45;;;;;;;;;;;;;;;8.25;100.00;92386.63;4973830;28;19914;-77
2023/03/24 02:20:11;;;;;;;;;;;;;;;8.29;100.00;92390.25;4970236;28;19950;-77
2023/03/24 02:22:40;;;;;;;;;;;;;;;8.30;100.00;92383.97;4954425;29;19965;-77
2023/03/24 02:25:24;;;;;;;;;;;;;;;8.33;100.00;92388.63;4956090;29;19910;-77
2023/03/24 02:27:59;;;;;;;;;;;;;;;8.35;100.00;92378.69;4954548;29;19926;-78
2023/03/24 02:30:43;;;;;;;;;;;;;;;8.37;100.00;92379.19;4965695;28;19914;-78
2023/03/24 02:33:08;;;;;;;;;;;;;;;8.39;100.00;92364.06;4973071;28;19914;-77
2023/03/24 02:35:53;;;;;;;;;;;;;;;8.41;100.00;92372.41;4975107;28;19910;-78
2023/03/24 02:38:27;;;;;;;;;;;;;;;8.43;100.00;92357.28;4974992;28;19918;-77
2023/03/24 02:40:56;;;;;;;;;;;;;;;8.44;100.00;92358.03;4974477;28;19980;-77
2023/03/24 02:43:21;;;;;;;;;;;;;;;8.48;100.00;92356.44;4967321;28;19914;-77
2023/03/24 02:46:06;;;;;;;;;;;;;;;8.47;100.00;92355.69;4967109;28;20412;-77
2023/03/24 02:48:35;;;;;;;;;;;;;;;8.52;100.00;92355.63;4971270;28;20368;-78
2023/03/24 02:51:08;;;;;;;;;;;;;;;8.50;100.00;92352.50;4972643;28;19917;-77
2023/03/24 02:53:39;;;;;;;;;;;;;;;8.47;100.00;92358.28;4973205;28;19921;-77
2023/03/24 02:56:39;;;;;;;;;;;;;;;8.46;100.00;92348.88;4973590;28;19953;-77
2023/03/24 02:59:22;;;;;;;;;;;;;;;8.45;100.00;92354.41;4959485;28;19994;-78
2023/03/24 03:01:57;;;;;;;;;;;;;;;8.43;100.00;92362.50;4973039;28;19914;-78
2023/03/24 03:04:38;;;;;;;;;;;;;;;8.42;100.00;92358.34;4973293;28;19914;-78
2023/03/24 03:07:08;;;;;;;;;;;;;;;8.42;100.00;92347.09;4972622;28;19957;-78
2023/03/24 03:09:36;;;;;;;;;;;;;;;8.40;100.00;92342.19;4969771;28;19914;-78
2023/03/24 03:12:02;;;;;;;;;;;;;;;8.40;100.00;92342.19;4953705;29;19917;-78
2023/03/24 03:14:28;;;;;;;;;;;;;;;8.40;100.00;92341.34;4966344;28;19965;-77
2023/03/24 03:16:58;;;;;;;;;;;;;;;8.45;100.00;92336.91;4953671;29;19938;-78
2023/03/24 03:19:32;;;;;;;;;;;;;;;8.46;100.00;92338.44;4969821;28;19914;-78
2023/03/24 03:21:59;;;;;;;;;;;;;;;8.37;100.00;92334.09;4954666;28;19945;-78
2023/03/24 03:24:26;;;;;;;;;;;;;;;8.30;100.00;92321.38;4966543;28;19965;-77
2023/03/24 03:27:04;;;;;;;;;;;;;;;8.28;100.00;92324.25;4956649;28;20312;-78
2023/03/24 03:29:32;;;;;;;;;;;;;;;8.27;100.00;92321.94;4973916;28;20368;-78
2023/03/24 03:32:06;;;;;;;;;;;;;;;8.28;100.00;92313.03;4972423;28;20001;-77
2023/03/24 03:34:42;;;;;;;;;;;;;;;8.27;100.00;92311.50;4955758;28;20428;-78
2023/03/24 03:37:12;;;;;;;;;;;;;;;8.26;100.00;92310.72;4965905;28;19914;-77
2023/03/24 03:39:45;;;;;;;;;;;;;;;8.26;100.00;92297.69;4985942;28;19918;-77
2023/03/24 03:42:12;;;;;;;;;;;;;;;8.27;100.00;92298.47;4972737;28;19914;-78
2023/03/24 03:44:38;;;;;;;;;;;;;;;8.29;100.00;92304.19;4969046;28;19924;-77
2023/03/24 03:47:04;;;;;;;;;;;;;;;8.30;100.00;92295.28;4972512;28;19993;-77
2023/03/24 03:49:37;;;;;;;;;;;;;;;8.36;100.00;92306.47;4968635;28;19914;-77
2023/03/24 03:52:03;;;;;;;;;;;;;;;8.37;100.00;92306.16;4921769;29;19985;-77
2023/03/24 03:54:30;;;;;;;;;;;;;;;8.38;100.00;92310.34;4983466;28;20292;-77
2023/03/24 03:56:57;;;;;;;;;;;;;;;8.37;100.00;92300.94;4972405;28;19913;-77
2023/03/24 03:59:32;;;;;;;;;;;;;;;8.38;100.00;92304.34;4972285;28;20300;-78
2023/03/24 04:02:13;;;;;;;;;;;;;;;8.54;100.00;92314.38;4972166;28;19964;-77
2023/03/24 04:04:42;;;;;;;;;;;;;;;8.42;100.00;92318.41;4972646;28;19977;-78
2023/03/24 04:07:56;;;;;;;;;;;;;;;8.27;100.00;92316.72;4969230;28;19953;-77
2023/03/24 04:10:57;;;;;;;;;;;;;;;8.17;100.00;92322.78;4950742;29;20006;-77
2023/03/24 04:13:25;;;;;;;;;;;;;;;8.08;100.00;92314.81;4954587;29;19914;-77
2023/03/24 04:16:36;;;;;;;;;;;;;;;8.15;100.00;92319.69;4952156;29;19917;-78
2023/03/24 04:19:17;;;;;;;;;;;;;;;8.13;100.00;92322.56;4958448;28;19964;-77
2023/03/24 04:22:09;;;;;;;;;;;;;;;8.03;100.00;92327.09;4971547;28;20291;-78
2023/03/24 04:24:56;;;;;;;;;;;;;;;7.94;100.00;92324.28;4968507;28;20427;-77
2023/03/24 04:27:27;;;;;;;;;;;;;;;7.89;100.00;92321.72;4968821;28;20363;-78
2023/03/24 04:30:15;;;;;;;;;;;;;;;7.92;100.00;92321.97;4971161;28;19964;-77
2023/03/24 04:32:41;;;;;;;;;;;;;;;7.92;100.00;92321.19;4967977;28;19940;-77
2023/03/24 04:35:10;;;;;;;;;;;;;;;7.91;100.00;92324.84;4972657;28;20297;-77
2023/03/24 04:38:01;;;;;;;;;;;;;;;7.98;100.00;92330.53;4976788;28;19937;-77
2023/03/24 04:40:33;;;;;;;;;;;;;;;8.11;100.00;92329.13;4959096;28;19972;-77
2023/03/24 04:43:03;;;;;;;;;;;;;;;8.00;100.00;92333.63;4970763;28;19973;-77
2023/03/24 04:45:32;;;;;;;;;;;;;;;7.94;100.00;92326.91;4966199;28;19961;-78
2023/03/24 04:48:23;;;;;;;;;;;;;;;7.93;100.00;92328.72;4961488;28;19941;-77
2023/03/24 04:51:09;;;;;;;;;;;;;;;7.92;100.00;92327.19;4968147;28;19921;-78
2023/03/24 04:54:13;;;;;;;;;;;;;;;7.94;100.00;92334.72;4954934;28;19920;-78
2023/03/24 04:56:51;;;;;;;;;;;;;;;7.97;100.00;92330.78;4939006;29;19919;-78
2023/03/24 04:59:22;;;;;;;;;;;;;;;8.01;100.00;92332.56;4963943;28;19950;-77
2023/03/24 05:01:48;;;;;;;;;;;;;;;8.05;100.00;92341.41;4966354;28;19949;-78
2023/03/24 05:04:35;;;;;;;;;;;;;;;8.12;100.00;92331.44;4976617;28;19926;-77
2023/03/24 05:07:16;;;;;;;;;;;;;;;8.20;100.00;92337.13;4975292;28;19922;-77
2023/03/24 05:09:43;;;;;;;;;;;;;;;8.18;100.00;92334.00;4973547;28;19997;-78
2023/03/24 05:12:09;;;;;;;;;;;;;;;8.19;100.00;92335.56;4987848;28;20009;-78
2023/03/24 05:14:54;;;;;;;;;;;;;;;8.27;100.00;92342.78;4936729;29;19914;-78
2023/03/24 05:17:20;;;;;;;;;;;;;;;8.31;100.00;92349.03;4957420;29;20291;-77
2023/03/24 05:19:45;;;;;;;;;;;;;;;8.26;100.00;92334.19;4957425;29;19914;-78
2023/03/24 05:22:11;;;;;;;;;;;;;;;8.25;100.00;92335.22;4973277;28;19981;-78
2023/03/24 05:24:36;;;;;;;;;;;;;;;8.26;100.00;92338.63;4975009;28;19917;-78
2023/03/24 05:27:02;;;;;;;;;;;;;;;8.23;100.00;92342.56;4974560;28;19922;-77
2023/03/24 05:29:27;;;;;;;;;;;;;;;8.28;100.00;92349.56;4991233;28;19922;-77
2023/03/24 05:31:53;;;;;;;;;;;;;;;8.32;100.00;92343.50;4973971;28;19914;-77
2023/03/24 05:34:21;;;;;;;;;;;;;;;8.32;100.00;92332.31;4974797;28;19922;-78
2023/03/24 05:37:08;;;;;;;;;;;;;;;8.35;100.00;92331.75;4974766;28;20364;-78
2023/03/24 05:39:34;;;;;;;;;;;;;;;8.40;100.00;92336.97;4963536;28;20447;-78
2023/03/24 05:42:06;;;;;;;;;;;;;;;8.34;100.00;92333.59;4969857;28;19921;-77
2023/03/24 05:44:32;;;;;;;;;;;;;;;8.49;100.00;92343.13;4954460;29;19914;-77
2023/03/24 05:47:03;;;;;;;;;;;;;;;8.37;100.00;92357.56;4958938;28;19966;-77
2023/03/24 05:49:29;;;;;;;;;;;;;;;8.31;100.00;92355.00;4973661;28;19965;-76
2023/03/24 05:51:55;;;;;;;;;;;;;;;8.28;100.00;92349.56;4969809;28;19922;-76
2023/03/24 05:54:21;;;;;;;;;;;;;;;8.30;100.00;92352.66;4939963;29;19969;-77
2023/03/24 05:56:50;;;;;;;;;;;;;;;8.30;100.00;92356.03;4961590;28;19968;-79
2023/03/24 05:59:21;;;;;;;;;;;;;;;8.32;100.00;92361.00;4973480;28;19918;-77
2023/03/24 06:02:11;;;;;;;;;;;;;;;8.33;100.00;92359.94;4964236;28;19949;-77
2023/03/24 06:05:00;;;;;;;;;;;;;;;8.36;100.00;92362.00;4977055;28;20000;-78
2023/03/24 06:07:29;;;;;;;;;;;;;;;8.39;100.00;92369.28;4977151;28;19968;-79
2023/03/24 06:09:56;;;;;;;;;;;;;;;8.42;100.00;92370.59;4962198;28;20008;-78
2023/03/24 06:12:23;;;;;;;;;;;;;;;8.40;100.00;92364.81;4978527;28;19918;-79
2023/03/24 06:14:56;;;;;;;;;;;;;;;8.42;100.00;92366.16;4979081;28;19914;-77
2023/03/24 06:17:23;;;;;;;;;;;;;;;8.46;100.00;92366.38;4979113;28;19914;-78
2023/03/24 06:19:53;;;;;;;;;;;;;;;8.66;100.00;92365.41;4977007;28;20473;-81
2023/03/24 06:22:37;;;;;;;;;;;;;;;8.64;100.00;92363.06;4972257;28;19928;-81
2023/03/24 06:25:08;;;;;;;;;;;;;;;8.75;100.00;92364.50;4957273;28;19957;-79
2023/03/24 06:27:34;;;;;;;;;;;;;;;8.55;100.00;92368.09;4971200;28;19930;-80
2023/03/24 06:30:02;;;;;;;;;;;;;;;8.50;100.00;92373.38;4968500;28;20019;-79
2023/03/24 06:32:27;;;;;;;;;;;;;;;8.41;100.00;92369.81;4973749;28;19918;-79
2023/03/24 06:34:53;;;;;;;;;;;;;;;8.41;100.00;92375.03;4974580;28;20261;-78
2023/03/24 06:37:41;;;;;;;;;;;;;;;8.53;100.00;92374.66;4964922;28;19917;-80
2023/03/24 06:40:14;;;;;;;;;;;;;;;8.51;100.00;92374.94;4971610;28;19918;-79
2023/03/24 06:42:46;;;;;;;;;;;;;;;8.51;100.00;92374.16;4962344;28;19918;-79
2023/03/24 06:45:11;;;;;;;;;;;;;;;8.50;100.00;92373.38;4972651;28;19918;-80
2023/03/24 06:47:37;;;;;;;;;;;;;;;8.46;100.00;92371.59;4971644;28;19922;-79
2023/03/24 06:50:03;;;;;;;;;;;;;;;8.35;100.00;92370.88;4964229;28;19965;-79
2023/03/24 06:52:29;;;;;;;;;;;;;;;8.25;100.00;92369.13;4972679;28;19945;-80
2023/03/24 06:54:56;;;;;;;;;;;;;;;8.18;100.00;92373.91;4974964;28;20032;-80
2023/03/24 06:57:22;;;;;;;;;;;;;;;8.14;100.00;92367.66;4949092;28;19918;-80
2023/03/24 07:00:24;;;;;;;;;;;;;;;8.14;100.00;92368.44;4959721;28;19921;-79
2023/03/24 07:03:06;;;;;;;;;;;;;;;8.10;100.00;92372.63;4967638;28;19919;-80
2023/03/24 07:05:32;;;;;;;;;;;;;;;8.06;100.00;92366.44;4971051;28;20336;-79
2023/03/24 07:07:58;;;;;;;;;;;;;;;8.08;100.00;92374.78;4961416;28;19914;-80
2023/03/24 07:10:41;;;;;;;;;;;;;;;8.07;100.00;92367.22;4968140;28;20001;-79
2023/03/24 07:13:07;;;;;;;;;;;;;;;8.06;100.00;92368.25;4955163;28;19925;-80
2023/03/24 07:15:34;;;;;;;;;;;;;;;8.12;100.00;92357.50;4968177;28;19997;-80
2023/03/24 07:18:00;;;;;;;;;;;;;;;8.19;100.00;92351.97;4974087;28;20013;-80
2023/03/24 07:20:35;;;;;;;;;;;;;;;8.20;100.00;92353.53;4974295;28;19921;-80
2023/03/24 07:23:14;;;;;;;;;;;;;;;8.18;100.00;92362.69;4970118;28;19977;-82
2023/03/24 07:25:58;;;;;;;;;;;;;;;8.31;100.00;92365.44;4973128;28;20250;-80
2023/03/24 07:28:44;;;;;;;;;;;;;;;8.31;100.00;92365.44;4956792;28;19914;-82
2023/03/24 07:31:09;;;;;;;;;;;;;;;8.15;100.00;92374.44;4971839;28;19925;-80
2023/03/24 07:33:38;;;;;;;;;;;;;;;8.20;100.00;92377.00;4971009;28;20392;-81
2023/03/24 07:36:06;;;;;;;;;;;;;;;8.07;100.00;92375.03;4965993;28;19914;-80
2023/03/24 07:38:32;;;;;;;;;;;;;;;8.10;100.00;92390.88;4971927;28;19976;-80
2023/03/24 07:41:02;;;;;;;;;;;;;;;8.16;100.00;92388.25;4967657;28;19929;-80
2023/03/24 07:43:30;;;;;;;;;;;;;;;8.17;100.00;92384.59;4971755;28;19918;-80
2023/03/24 07:45:56;;;;;;;;;;;;;;;8.24;100.00;92390.25;4971488;28;19918;-81
2023/03/24 07:48:34;;;;;;;;;;;;;;;8.19;100.00;92395.53;4976682;28;19918;-80
2023/03/24 07:51:21;;;;;;;;;;;;;;;8.23;100.00;92399.94;4977014;28;19914;-80
2023/03/24 07:53:58;;;;;;;;;;;;;;;8.24;100.00;92405.91;4975519;28;19914;-80
2023/03/24 07:56:41;;;;;;;;;;;;;;;8.12;100.00;92407.03;4975865;28;19918;-80
2023/03/24 07:59:16;;;;;;;;;;;;;;;8.12;100.00;92408.88;4975437;28;19929;-80
2023/03/24 08:01:50;;;;;;;;;;;;;;;8.30;100.00;92402.22;4974211;28;20392;-79
2023/03/24 08:04:20;;;;;;;;;;;;;;;8.12;100.00;92393.22;4971589;28;19918;-80
2023/03/24 08:07:01;;;;;;;;;;;;;;;8.07;100.00;92401.09;4991153;28;19918;-80
2023/03/24 08:09:27;;;;;;;;;;;;;;;8.05;100.00;92403.97;4974957;28;19969;-81
2023/03/24 08:11:55;;;;;;;;;;;;;;;8.07;100.00;92409.69;4979808;28;19945;-79
2023/03/24 08:14:21;;;;;;;;;;;;;;;8.11;100.00;92413.31;4979567;28;19958;-80
2023/03/24 08:16:46;;;;;;;;;;;;;;;8.09;100.00;92417.25;4978324;28;20385;-81
2023/03/24 08:19:11;;;;;;;;;;;;;;;8.13;100.00;92410.44;4979700;28;19925;-81
2023/03/24 08:21:37;;;;;;;;;;;;;;;8.25;100.00;92403.03;4994042;28;20427;-80
2023/03/24 08:24:37;;;;;;;;;;;;;;;8.21;100.00;92399.41;4979015;28;19922;-80
2023/03/24 08:31:25;;;;;;;;;;;;;;;8.11;100.00;92396.91;4980399;28;19924;-80
2023/03/24 08:33:52;;;;;;;;;;;;;;;8.02;100.00;92401.91;4996686;28;19921;-81
2023/03/24 08:39:57;;;;;;;;;;;;;;;7.95;100.00;92408.47;4981136;28;19925;-81
2023/03/24 08:42:23;;;;;;;;;;;;;;;8.02;100.00;92408.97;4978020;28;19925;-81
2023/03/24 08:44:49;;;;;;;;;;;;;;;7.95;100.00;92403.25;4973811;28;19917;-80
2023/03/24 08:47:22;;;;;;;;;;;;;;;7.96;100.00;92416.03;4976912;28;19929;-81
2023/03/24 08:49:48;;;;;;;;;;;;;;;7.97;100.00;92415.00;4979020;28;19929;-81
2023/03/24 08:52:33;;;;;;;;;;;;;;;7.97;100.00;92412.38;4971869;28;19914;-82
2023/03/24 08:55:00;;;;;;;;;;;;;;;7.96;100.00;92418.63;4965575;28;19914;-81
2023/03/24 08:57:32;;;;;;;;;;;;;;;7.97;100.00;92422.00;4979491;28;20383;-81
2023/03/24 09:00:14;;;;;;;;;;;;;;;8.03;100.00;92424.31;4972865;28;19913;-82
2023/03/24 09:02:44;;;;;;;;;;;;;;;8.03;100.00;92418.34;4977252;28;19985;-82
2023/03/24 09:05:18;;;;;;;;;;;;;;;8.05;100.00;92413.63;4979374;28;20069;-81
2023/03/24 09:07:44;;;;;;;;;;;;;;;8.10;100.00;92427.38;4980618;28;19925;-81
2023/03/24 09:10:16;;;;;;;;;;;;;;;8.11;100.00;92428.97;4980053;28;20373;-81
2023/03/24 09:12:44;;;;;;;;;;;;;;;8.14;100.00;92428.41;4980727;28;19925;-79
2023/03/24 09:15:13;;;;;;;;;;;;;;;8.08;100.00;92428.72;4980618;28;20360;-80
2023/03/24 09:17:39;;;;;;;;;;;;;;;8.19;100.00;92421.59;4978860;28;19921;-80
2023/03/24 09:20:10;;;;;;;;;;;;;;;8.24;100.00;92426.78;4979432;28;19918;-81
2023/03/24 09:22:38;;;;;;;;;;;;;;;8.22;100.00;92426.25;4994219;28;19957;-80
2023/03/24 09:25:03;;;;;;;;;;;;;;;8.17;100.00;92428.91;4971932;28;19921;-80
2023/03/24 09:27:29;;;;;;;;;;;;;;;8.11;100.00;92421.13;4992636;28;19918;-77
2023/03/24 09:29:55;;;;;;;;;;;;;;;8.13;100.00;92413.06;4979138;28;19953;-78
2023/03/24 09:32:20;;;;;;;;;;;;;;;8.16;100.00;92411.72;4974743;28;19941;-77
2023/03/24 09:34:59;;;;;;;;;;;;;;;8.16;100.00;92414.34;4974610;28;19918;-81
2023/03/24 09:37:36;;;;;;;;;;;;;;;8.11;100.00;92415.94;4961166;28;19985;-79
2023/03/24 09:40:32;;;;;;;;;;;;;;;8.14;100.00;92415.38;4971773;28;20431;-79
2023/03/24 09:43:11;;;;;;;;;;;;;;;8.22;100.00;92418.44;4944209;28;19914;-80
2023/03/24 09:45:47;;;;;;;;;;;;;;;8.18;100.00;92414.84;4978405;28;19914;-80
2023/03/24 09:48:43;;;;;;;;;;;;;;;8.24;100.00;92409.31;4980144;28;19945;-80
2023/03/24 09:51:27;;;;;;;;;;;;;;;8.23;100.00;92409.59;4957752;29;19914;-78
2023/03/24 09:53:56;;;;;;;;;;;;;;;8.30;100.00;92399.63;4951894;29;20434;-80
2023/03/24 09:56:22;;;;;;;;;;;;;;;8.44;100.00;92395.34;4972155;28;20353;-79
2023/03/24 09:58:53;;;;;;;;;;;;;;;8.39;100.00;92402.41;4976547;28;19926;-80
2023/03/24 10:01:20;;;;;;;;;;;;;;;8.26;100.00;92398.59;4973436;28;19936;-79
2023/03/24 10:03:45;;;;;;;;;;;;;;;8.27;100.00;92410.59;4974879;28;19949;-80
2023/03/24 10:06:17;;;;;;;;;;;;;;;8.18;100.00;92407.03;4970431;28;19957;-80
2023/03/24 10:08:47;;;;;;;;;;;;;;;8.31;100.00;92401.19;4970517;28;20280;-80
2023/03/24 10:11:21;;;;;;;;;;;;;;;8.28;100.00;92399.88;4967957;28;20373;-80
2023/03/24 10:13:59;;;;;;;;;;;;;;;8.30;100.00;92402.22;4976255;28;19946;-79
2023/03/24 10:16:29;;;;;;;;;;;;;;;8.32;100.00;92407.94;4975044;28;20373;-80
2023/03/24 10:18:54;;;;;;;;;;;;;;;8.45;100.00;92407.34;4976520;28;19914;-78
2023/03/24 10:21:24;;;;;;;;;;;;;;;8.36;100.00;92408.19;4977963;28;19910;-79
2023/03/24 10:24:08;;;;;;;;;;;;;;;8.25;100.00;92415.31;4977894;28;20231;-78
2023/03/24 10:26:46;;;;;;;;;;;;;;;8.31;100.00;92407.16;4974756;28;19918;-80
2023/03/24 10:29:21;;;;;;;;;;;;;;;8.27;100.00;92402.78;4987894;28;19922;-79
2023/03/24 10:31:49;;;;;;;;;;;;;;;8.28;100.00;92406.94;4957658;28;19921;-80
2023/03/24 10:34:16;;;;;;;;;;;;;;;8.45;100.00;92404.72;4955755;29;19910;-80
2023/03/24 10:36:43;;;;;;;;;;;;;;;8.50;100.00;92399.47;4957679;28;19918;-79
2023/03/24 10:39:15;;;;;;;;;;;;;;;8.37;100.00;92405.28;4959556;28;19910;-79
2023/03/24 10:41:41;;;;;;;;;;;;;;;8.35;100.00;92402.16;4974056;28;19924;-78
2023/03/24 10:44:07;;;;;;;;;;;;;;;8.34;100.00;92396.19;4992505;28;19918;-80
2023/03/24 10:46:34;;;;;;;;;;;;;;;8.37;100.00;92397.47;4977444;28;19928;-80
2023/03/24 10:49:08;;;;;;;;;;;;;;;8.29;100.00;92387.63;4975509;28;19910;-80
2023/03/24 10:51:35;;;;;;;;;;;;;;;8.36;100.00;92388.09;4976611;28;20352;-80
2023/03/24 10:54:21;;;;;;;;;;;;;;;8.53;100.00;92392.91;4976823;28;19914;-80
2023/03/24 10:56:48;;;;;;;;;;;;;;;8.53;100.00;92400.75;4976706;28;19914;-80
2023/03/24 10:59:18;;;;;;;;;;;;;;;8.32;100.00;92403.50;4970129;28;19961;-80
2023/03/24 11:01:44;;;;;;;;;;;;;;;8.31;100.00;92395.97;4968364;28;20411;-80
2023/03/24 11:04:12;;;;;;;;;;;;;;;8.52;100.00;92391.38;4959591;28;20295;-80
2023/03/24 11:06:51;;;;;;;;;;;;;;;8.45;100.00;92398.75;4976915;28;19922;-79
2023/03/24 11:09:16;;;;;;;;;;;;;;;8.60;100.00;92388.16;4976808;28;19914;-80
2023/03/24 11:11:42;;;;;;;;;;;;;;;8.50;100.00;92394.25;4975375;28;20292;-80
2023/03/24 11:14:18;;;;;;;;;;;;;;;8.54;100.00;92395.25;4958337;28;20062;-78
2023/03/24 11:16:43;;;;;;;;;;;;;;;8.57;100.00;92393.16;4956034;29;19914;-80
2023/03/24 11:19:19;;;;;;;;;;;;;;;8.68;100.00;92394.63;4956006;29;19917;-80
2023/03/24 11:21:45;;;;;;;;;;;;;;;8.62;100.00;92388.66;4956150;29;19914;-78
2023/03/24 11:24:16;;;;;;;;;;;;;;;8.42;100.00;92397.47;4974439;28;19918;-79
2023/03/24 11:26:49;;;;;;;;;;;;;;;8.45;100.00;92389.09;4976006;28;19925;-80
2023/03/24 11:29:17;;;;;;;;;;;;;;;8.43;100.00;92385.19;4975582;28;20292;-80
2023/03/24 11:31:50;;;;;;;;;;;;;;;8.33;100.00;92394.63;4959860;28;19916;-80
2023/03/24 11:34:33;;;;;;;;;;;;;;;8.24;100.00;92398.09;4976834;28;20348;-80
2023/03/24 11:37:02;;;;;;;;;;;;;;;8.25;100.00;92397.06;4967927;28;19934;-80
2023/03/24 11:39:33;;;;;;;;;;;;;;;8.18;100.00;92389.53;4957856;28;19914;-80
2023/03/24 11:42:02;;;;;;;;;;;;;;;8.12;100.00;92390.63;4957554;29;19922;-79
2023/03/24 11:44:38;;;;;;;;;;;;;;;8.18;100.00;92381.72;4957320;28;19914;-79
2023/03/24 11:47:08;;;;;;;;;;;;;;;8.03;100.00;92382.59;4957498;29;19919;-80
2023/03/24 11:49:38;;;;;;;;;;;;;;;8.08;100.00;92372.16;4957478;29;19922;-79
2023/03/24 11:52:07;;;;;;;;;;;;;;;7.99;100.00;92375.59;4957018;28;19973;-80
2023/03/24 11:54:35;;;;;;;;;;;;;;;7.97;100.00;92375.09;4968562;28;19910;-80
2023/03/24 11:57:08;;;;;;;;;;;;;;;8.06;100.00;92369.03;4957779;28;20426;-78
2023/03/24 12:00:07;;;;;;;;;;;;;;;8.09;100.00;92370.31;4957243;29;19914;-79
2023/03/24 12:02:43;;;;;;;;;;;;;;;8.03;100.00;92353.94;4923742;29;19914;-79
2023/03/24 12:05:28;;;;;;;;;;;;;;;7.98;100.00;92335.72;4957864;28;19972;-80
2023/03/24 12:07:54;;;;;;;;;;;;;;;7.96;100.00;92356.06;4957814;28;19974;-80
2023/03/24 12:10:38;;;;;;;;;;;;;;;7.97;100.00;92362.88;4962468;28;19910;-80
2023/03/24 12:13:06;;;;;;;;;;;;;;;7.89;100.00;92359.00;4966746;28;20301;-80
2023/03/24 12:15:31;;;;;;;;;;;;;;;7.72;100.00;92346.34;4957050;28;19933;-80
2023/03/24 12:18:12;;;;;;;;;;;;;;;7.83;100.00;92344.44;4957622;28;19915;-78
2023/03/24 12:20:45;;;;;;;;;;;;;;;7.89;100.00;92348.56;4957130;28;19918;-80
2023/03/24 12:23:31;;;;;;;;;;;;;;;7.96;100.00;92345.66;4956149;29;20416;-80
2023/03/24 12:26:00;;;;;;;;;;;;;;;7.95;100.00;92340.69;4956681;29;19915;-81
2023/03/24 12:28:25;;;;;;;;;;;;;;;7.92;100.00;92336.81;4969905;28;20016;-78
2023/03/24 12:30:53;;;;;;;;;;;;;;;7.95;100.00;92332.88;4976439;28;20305;-80
2023/03/24 12:33:19;;;;;;;;;;;;;;;7.99;100.00;92326.06;4976763;28;20364;-80
2023/03/24 12:36:00;;;;;;;;;;;;;;;8.00;100.00;92318.00;4991237;28;19914;-80
2023/03/24 12:38:35;;;;;;;;;;;;;;;8.06;100.00;92321.31;4975495;28;19921;-80
2023/03/24 12:41:19;;;;;;;;;;;;;;;8.03;100.00;92316.66;4975926;28;19914;-79
2023/03/24 12:43:56;;;;;;;;;;;;;;;8.18;100.00;92318.38;4975411;28;19914;-80
2023/03/24 12:46:59;;;;;;;;;;;;;;;8.10;100.00;92314.50;4958858;28;19961;-79
2023/03/24 12:52:34;;;;;;;;;;;;;;;8.29;100.00;92309.41;4975762;28;19929;-80
2023/03/24 12:55:03;;;;;;;;;;;;;;;8.23;100.00;92307.88;4975418;28;20024;-78
2023/03/24 12:57:49;;;;;;;;;;;;;;;8.23;100.00;92300.06;4976670;28;20392;-79
2023/03/24 13:00:20;;;;;;;;;;;;;;;8.22;100.00;92293.28;4977931;28;19997;-79
2023/03/24 13:02:50;;;;;;;;;;;;;;;8.17;100.00;92298.53;4979436;28;20167;-79
2023/03/24 13:05:21;;;;;;;;;;;;;;;8.17;100.00;92295.94;4978802;28;19914;-80
2023/03/24 13:07:52;;;;;;;;;;;;;;;8.18;100.00;92297.50;4980378;28;19918;-80
2023/03/24 13:10:26;;;;;;;;;;;;;;;8.18;100.00;92300.88;4980277;28;19957;-80
2023/03/24 13:12:54;;;;;;;;;;;;;;;8.20;100.00;92300.63;4979574;28;19914;-78
2023/03/24 13:15:23;;;;;;;;;;;;;;;8.36;100.00;92291.59;4972527;28;20280;-80
2023/03/24 13:18:15;;;;;;;;;;;;;;;8.44;100.00;92288.38;4972213;28;19922;-80
2023/03/24 13:20:41;;;;;;;;;;;;;;;8.28;100.00;92289.56;4975472;28;19960;-79
2023/03/24 13:23:27;;;;;;;;;;;;;;;8.34;100.00;92284.03;4979272;28;20372;-80
2023/03/24 13:26:00;;;;;;;;;;;;;;;8.28;100.00;92272.09;4978144;28;19918;-80